Terminal Aerodrome Forecast
Issued by NWS Greer, SC

Current Version | Previous Version | Text Only | Print | Product List | Glossary On
Versions: 1 2 3 4 5 6 7 8 9 10 11 12
000
FTUS42 KGSP 221741
TAFGSP
TAF
KGSP 221741Z 2218/2318 11006KT P6SM BKN050
     FM222200 08006KT P6SM BKN045 PROB30 2303/2307 4SM -SHRA OVC015
     FM230700 08007KT P6SM OVC015 PROB30 2307/2310 4SM -SHRA BR
      OVC008
     FM231000 09009KT 4SM -SHRA BR OVC005
     FM231200 12009KT 3SM +SHRA BR OVC003
     FM231700 15011KT 2SM +SHRA BR OVC008 PROB30 2317/2318 1SM TS BR
      OVC003CB=

USA.gov is the U.S. government's official web portal to all federal, state and local government web resources and services.